sensor_id;sensor_type;location;lat;lon;timestamp;temperature;humidity
14993;DHT22;7592;51.088;13.732;2022-12-29T00:01:44;9.90;99.90
14993;DHT22;7592;51.088;13.732;2022-12-29T00:06:38;10.20;99.90
14993;DHT22;7592;51.088;13.732;2022-12-29T00:11:31;10.30;99.90
14993;DHT22;7592;51.088;13.732;2022-12-29T00:16:26;10.50;99.90
14993;DHT22;7592;51.088;13.732;2022-12-29T00:21:24;10.60;99.90
14993;DHT22;7592;51.088;13.732;2022-12-29T00:26:37;10.60;99.90
14993;DHT22;7592;51.088;13.732;2022-12-29T00:31:49;10.60;99.90
14993;DHT22;7592;51.088;13.732;2022-12-29T00:37:01;10.70;99.90
14993;DHT22;7592;51.088;13.732;2022-12-29T00:42:04;10.80;99.90
14993;DHT22;7592;51.088;13.732;2022-12-29T00:47:17;11.00;99.90
14993;DHT22;7592;51.088;13.732;2022-12-29T00:52:12;11.20;99.90
14993;DHT22;7592;51.088;13.732;2022-12-29T00:57:13;11.20;99.90
14993;DHT22;7592;51.088;13.732;2022-12-29T01:02:06;11.20;99.90
14993;DHT22;7592;51.088;13.732;2022-12-29T01:07:04;11.20;99.90
14993;DHT22;7592;51.088;13.732;2022-12-29T01:12:07;11.10;99.90
14993;DHT22;7592;51.088;13.732;2022-12-29T01:17:00;11.10;99.90
14993;DHT22;7592;51.088;13.732;2022-12-29T01:21:57;11.00;99.90
14993;DHT22;7592;51.088;13.732;2022-12-29T01:26:53;11.00;99.90
14993;DHT22;7592;51.088;13.732;2022-12-29T01:31:47;11.00;99.90
14993;DHT22;7592;51.088;13.732;2022-12-29T01:36:48;11.00;99.90
14993;DHT22;7592;51.088;13.732;2022-12-29T01:41:42;10.90;99.90
14993;DHT22;7592;51.088;13.732;2022-12-29T01:46:41;11.00;99.90
14993;DHT22;7592;51.088;13.732;2022-12-29T01:52:00;11.00;99.90
14993;DHT22;7592;51.088;13.732;2022-12-29T01:56:57;11.00;99.90
14993;DHT22;7592;51.088;13.732;2022-12-29T02:01:54;10.90;99.90
14993;DHT22;7592;51.088;13.732;2022-12-29T02:07:04;10.90;99.90
14993;DHT22;7592;51.088;13.732;2022-12-29T02:12:00;10.80;99.90
14993;DHT22;7592;51.088;13.732;2022-12-29T02:17:48;10.70;99.90
14993;DHT22;7592;51.088;13.732;2022-12-29T02:23:30;10.80;99.90
14993;DHT22;7592;51.088;13.732;2022-12-29T02:34:08;10.90;99.90
14993;DHT22;7592;51.088;13.732;2022-12-29T02:44:50;11.00;99.90
14993;DHT22;7592;51.088;13.732;2022-12-29T02:55:02;11.10;99.90
14993;DHT22;7592;51.088;13.732;2022-12-29T03:00:05;11.00;99.90
14993;DHT22;7592;51.088;13.732;2022-12-29T03:05:17;11.00;99.90
14993;DHT22;7592;51.088;13.732;2022-12-29T03:10:37;11.10;99.90
14993;DHT22;7592;51.088;13.732;2022-12-29T03:15:42;10.90;99.90
14993;DHT22;7592;51.088;13.732;2022-12-29T03:26:54;11.20;99.90
14993;DHT22;7592;51.088;13.732;2022-12-29T03:32:02;11.30;99.90
14993;DHT22;7592;51.088;13.732;2022-12-29T03:37:21;11.40;99.90
14993;DHT22;7592;51.088;13.732;2022-12-29T03:42:20;11.50;99.90
14993;DHT22;7592;51.088;13.732;2022-12-29T03:47:15;11.60;99.90
14993;DHT22;7592;51.088;13.732;2022-12-29T03:52:14;11.70;99.90
14993;DHT22;7592;51.088;13.732;2022-12-29T03:57:15;11.80;99.90
14993;DHT22;7592;51.088;13.732;2022-12-29T04:02:22;11.80;99.90
14993;DHT22;7592;51.088;13.732;2022-12-29T04:07:18;11.90;99.90
14993;DHT22;7592;51.088;13.732;2022-12-29T04:12:22;11.80;99.90
14993;DHT22;7592;51.088;13.732;2022-12-29T04:17:17;11.80;99.90
14993;DHT22;7592;51.088;13.732;2022-12-29T04:22:17;11.90;99.90
14993;DHT22;7592;51.088;13.732;2022-12-29T04:27:17;11.70;99.90
14993;DHT22;7592;51.088;13.732;2022-12-29T04:32:34;11.80;99.90
14993;DHT22;7592;51.088;13.732;2022-12-29T04:37:29;11.60;99.90
14993;DHT22;7592;51.088;13.732;2022-12-29T04:42:25;11.70;99.90
14993;DHT22;7592;51.088;13.732;2022-12-29T04:47:18;11.70;99.90
14993;DHT22;7592;51.088;13.732;2022-12-29T04:52:48;11.80;99.90
14993;DHT22;7592;51.088;13.732;2022-12-29T04:57:43;11.80;99.90
14993;DHT22;7592;51.088;13.732;2022-12-29T05:02:42;11.80;99.90
14993;DHT22;7592;51.088;13.732;2022-12-29T05:07:38;11.80;99.90
14993;DHT22;7592;51.088;13.732;2022-12-29T05:12:36;11.70;99.90
14993;DHT22;7592;51.088;13.732;2022-12-29T05:17:34;11.70;99.90
14993;DHT22;7592;51.088;13.732;2022-12-29T05:22:32;11.80;99.90
14993;DHT22;7592;51.088;13.732;2022-12-29T05:27:26;11.90;99.90
14993;DHT22;7592;51.088;13.732;2022-12-29T05:32:36;11.90;99.90
14993;DHT22;7592;51.088;13.732;2022-12-29T05:37:32;11.80;99.90
14993;DHT22;7592;51.088;13.732;2022-12-29T05:42:30;11.80;99.90
14993;DHT22;7592;51.088;13.732;2022-12-29T05:47:45;11.90;99.90
14993;DHT22;7592;51.088;13.732;2022-12-29T05:52:57;11.90;99.90
14993;DHT22;7592;51.088;13.732;2022-12-29T05:57:56;11.80;99.90
14993;DHT22;7592;51.088;13.732;2022-12-29T06:02:51;11.80;99.90
14993;DHT22;7592;51.088;13.732;2022-12-29T06:07:45;11.80;99.90
14993;DHT22;7592;51.088;13.732;2022-12-29T06:12:41;11.70;99.90
14993;DHT22;7592;51.088;13.732;2022-12-29T06:17:35;11.70;99.90
14993;DHT22;7592;51.088;13.732;2022-12-29T06:22:29;11.70;99.90
14993;DHT22;7592;51.088;13.732;2022-12-29T06:27:26;11.80;99.90
14993;DHT22;7592;51.088;13.732;2022-12-29T06:32:24;11.90;99.90
14993;DHT22;7592;51.088;13.732;2022-12-29T06:37:23;11.90;99.90
14993;DHT22;7592;51.088;13.732;2022-12-29T06:42:21;12.00;99.90
14993;DHT22;7592;51.088;13.732;2022-12-29T06:47:36;11.90;99.90
14993;DHT22;7592;51.088;13.732;2022-12-29T06:52:33;11.90;99.90
14993;DHT22;7592;51.088;13.732;2022-12-29T06:57:26;11.80;99.90
14993;DHT22;7592;51.088;13.732;2022-12-29T07:02:22;11.70;99.90
14993;DHT22;7592;51.088;13.732;2022-12-29T07:07:30;11.70;99.90
14993;DHT22;7592;51.088;13.732;2022-12-29T07:12:25;11.70;99.90
14993;DHT22;7592;51.088;13.732;2022-12-29T07:17:19;11.60;99.90
14993;DHT22;7592;51.088;13.732;2022-12-29T07:22:12;11.60;99.90
14993;DHT22;7592;51.088;13.732;2022-12-29T07:27:07;11.60;99.90
14993;DHT22;7592;51.088;13.732;2022-12-29T07:32:02;11.70;99.90
14993;DHT22;7592;51.088;13.732;2022-12-29T07:36:55;11.70;99.90
14993;DHT22;7592;51.088;13.732;2022-12-29T07:41:49;11.90;99.90
14993;DHT22;7592;51.088;13.732;2022-12-29T07:46:47;12.00;99.90
14993;DHT22;7592;51.088;13.732;2022-12-29T07:51:47;11.90;99.90
14993;DHT22;7592;51.088;13.732;2022-12-29T07:56:42;12.10;99.90
14993;DHT22;7592;51.088;13.732;2022-12-29T08:01:37;12.20;99.90
14993;DHT22;7592;51.088;13.732;2022-12-29T08:06:31;12.30;99.90
14993;DHT22;7592;51.088;13.732;2022-12-29T08:11:26;12.50;99.90
14993;DHT22;7592;51.088;13.732;2022-12-29T08:16:21;12.60;99.90
14993;DHT22;7592;51.088;13.732;2022-12-29T08:21:15;12.70;99.90
14993;DHT22;7592;51.088;13.732;2022-12-29T08:26:09;12.90;99.90
14993;DHT22;7592;51.088;13.732;2022-12-29T08:31:05;12.90;99.90
14993;DHT22;7592;51.088;13.732;2022-12-29T08:36:00;13.00;99.90
14993;DHT22;7592;51.088;13.732;2022-12-29T08:40:55;13.10;99.90
14993;DHT22;7592;51.088;13.732;2022-12-29T08:46:01;13.20;99.90
14993;DHT22;7592;51.088;13.732;2022-12-29T08:50:55;13.20;99.90
14993;DHT22;7592;51.088;13.732;2022-12-29T08:55:56;13.10;99.90
14993;DHT22;7592;51.088;13.732;2022-12-29T09:01:09;13.00;99.90
14993;DHT22;7592;51.088;13.732;2022-12-29T09:06:03;12.80;99.90
14993;DHT22;7592;51.088;13.732;2022-12-29T09:11:12;12.80;99.90
14993;DHT22;7592;51.088;13.732;2022-12-29T09:16:06;12.80;99.90
14993;DHT22;7592;51.088;13.732;2022-12-29T09:21:03;12.90;99.90
14993;DHT22;7592;51.088;13.732;2022-12-29T09:25:55;13.10;99.90
14993;DHT22;7592;51.088;13.732;2022-12-29T09:30:47;13.30;99.90
14993;DHT22;7592;51.088;13.732;2022-12-29T09:35:45;13.40;99.90
14993;DHT22;7592;51.088;13.732;2022-12-29T09:40:40;13.40;99.90
14993;DHT22;7592;51.088;13.732;2022-12-29T09:51:00;13.80;99.90
14993;DHT22;7592;51.088;13.732;2022-12-29T09:55:55;14.70;99.90
14993;DHT22;7592;51.088;13.732;2022-12-29T10:00:56;17.20;99.90
14993;DHT22;7592;51.088;13.732;2022-12-29T10:06:00;18.50;99.90
14993;DHT22;7592;51.088;13.732;2022-12-29T10:10:59;18.70;99.90
14993;DHT22;7592;51.088;13.732;2022-12-29T10:15:55;19.40;99.90
14993;DHT22;7592;51.088;13.732;2022-12-29T10:26:33;19.60;97.60
14993;DHT22;7592;51.088;13.732;2022-12-29T10:32:02;20.10;95.10
14993;DHT22;7592;51.088;13.732;2022-12-29T10:37:27;20.30;94.00
14993;DHT22;7592;51.088;13.732;2022-12-29T10:42:51;20.90;91.10
14993;DHT22;7592;51.088;13.732;2022-12-29T10:48:03;20.90;90.70
14993;DHT22;7592;51.088;13.732;2022-12-29T10:53:05;18.10;94.90
14993;DHT22;7592;51.088;13.732;2022-12-29T10:58:01;17.20;98.60
14993;DHT22;7592;51.088;13.732;2022-12-29T11:07:57;18.40;97.30
14993;DHT22;7592;51.088;13.732;2022-12-29T11:13:02;18.20;98.50
14993;DHT22;7592;51.088;13.732;2022-12-29T11:17:57;17.30;99.00
14993;DHT22;7592;51.088;13.732;2022-12-29T11:22:54;16.40;99.90
14993;DHT22;7592;51.088;13.732;2022-12-29T11:28:16;15.80;99.90
14993;DHT22;7592;51.088;13.732;2022-12-29T11:33:09;15.30;99.90
14993;DHT22;7592;51.088;13.732;2022-12-29T11:38:02;15.10;99.90
14993;DHT22;7592;51.088;13.732;2022-12-29T11:42:58;15.30;99.90
14993;DHT22;7592;51.088;13.732;2022-12-29T11:48:00;15.40;99.90
14993;DHT22;7592;51.088;13.732;2022-12-29T11:52:59;15.50;99.90
14993;DHT22;7592;51.088;13.732;2022-12-29T11:57:53;16.10;99.90
14993;DHT22;7592;51.088;13.732;2022-12-29T12:03:13;15.80;99.90
14993;DHT22;7592;51.088;13.732;2022-12-29T12:08:17;15.50;99.90
14993;DHT22;7592;51.088;13.732;2022-12-29T12:13:22;15.30;99.90
14993;DHT22;7592;51.088;13.732;2022-12-29T12:18:40;14.90;99.90
14993;DHT22;7592;51.088;13.732;2022-12-29T12:29:08;14.80;99.90
14993;DHT22;7592;51.088;13.732;2022-12-29T12:34:05;15.00;99.90
14993;DHT22;7592;51.088;13.732;2022-12-29T12:50:18;15.50;99.90
14993;DHT22;7592;51.088;13.732;2022-12-29T13:00:11;15.60;99.90
14993;DHT22;7592;51.088;13.732;2022-12-29T13:10:41;15.70;99.90
14993;DHT22;7592;51.088;13.732;2022-12-29T13:26:39;15.90;99.90
14993;DHT22;7592;51.088;13.732;2022-12-29T13:36:54;15.70;99.90
14993;DHT22;7592;51.088;13.732;2022-12-29T13:41:53;15.40;99.90
14993;DHT22;7592;51.088;13.732;2022-12-29T13:46:49;15.10;99.90
14993;DHT22;7592;51.088;13.732;2022-12-29T13:51:49;15.00;99.90
14993;DHT22;7592;51.088;13.732;2022-12-29T13:57:15;14.90;99.90
14993;DHT22;7592;51.088;13.732;2022-12-29T14:07:18;14.60;99.90
14993;DHT22;7592;51.088;13.732;2022-12-29T14:17:21;14.40;99.90
14993;DHT22;7592;51.088;13.732;2022-12-29T14:22:13;14.50;99.90
14993;DHT22;7592;51.088;13.732;2022-12-29T14:42:30;14.40;99.90
14993;DHT22;7592;51.088;13.732;2022-12-29T14:47:24;14.40;99.90
14993;DHT22;7592;51.088;13.732;2022-12-29T14:52:23;14.30;99.90
14993;DHT22;7592;51.088;13.732;2022-12-29T14:57:39;14.30;99.90
14993;DHT22;7592;51.088;13.732;2022-12-29T15:02:39;14.30;99.90
14993;DHT22;7592;51.088;13.732;2022-12-29T15:07:32;14.10;99.90
14993;DHT22;7592;51.088;13.732;2022-12-29T15:12:50;14.10;99.90
14993;DHT22;7592;51.088;13.732;2022-12-29T15:17:44;14.00;99.90
14993;DHT22;7592;51.088;13.732;2022-12-29T15:22:36;13.90;99.90
14993;DHT22;7592;51.088;13.732;2022-12-29T15:27:29;13.90;99.90
14993;DHT22;7592;51.088;13.732;2022-12-29T15:32:26;13.70;99.90
14993;DHT22;7592;51.088;13.732;2022-12-29T15:37:32;13.60;99.90
14993;DHT22;7592;51.088;13.732;2022-12-29T15:47:52;13.40;99.90
14993;DHT22;7592;51.088;13.732;2022-12-29T15:52:46;13.40;99.90
14993;DHT22;7592;51.088;13.732;2022-12-29T15:57:42;13.40;99.90
14993;DHT22;7592;51.088;13.732;2022-12-29T16:02:34;13.50;99.90
14993;DHT22;7592;51.088;13.732;2022-12-29T16:07:32;13.40;99.90
14993;DHT22;7592;51.088;13.732;2022-12-29T16:12:35;13.30;99.90
14993;DHT22;7592;51.088;13.732;2022-12-29T16:17:30;13.10;99.90
14993;DHT22;7592;51.088;13.732;2022-12-29T16:22:34;13.00;99.90
14993;DHT22;7592;51.088;13.732;2022-12-29T16:27:41;12.80;99.90
14993;DHT22;7592;51.088;13.732;2022-12-29T16:32:34;12.70;99.90
14993;DHT22;7592;51.088;13.732;2022-12-29T16:37:34;12.60;99.90
14993;DHT22;7592;51.088;13.732;2022-12-29T16:47:42;12.40;99.90
14993;DHT22;7592;51.088;13.732;2022-12-29T16:52:34;12.30;99.90
14993;DHT22;7592;51.088;13.732;2022-12-29T16:57:32;12.30;99.90
14993;DHT22;7592;51.088;13.732;2022-12-29T17:02:27;12.40;99.90
14993;DHT22;7592;51.088;13.732;2022-12-29T17:07:23;12.60;99.90
14993;DHT22;7592;51.088;13.732;2022-12-29T17:12:34;12.40;99.90
14993;DHT22;7592;51.088;13.732;2022-12-29T17:17:34;12.30;99.90
14993;DHT22;7592;51.088;13.732;2022-12-29T17:22:28;12.10;99.90
14993;DHT22;7592;51.088;13.732;2022-12-29T17:27:28;12.00;99.90
14993;DHT22;7592;51.088;13.732;2022-12-29T17:32:21;11.80;99.90
14993;DHT22;7592;51.088;13.732;2022-12-29T17:42:16;11.70;99.90
14993;DHT22;7592;51.088;13.732;2022-12-29T17:47:14;11.70;99.90
14993;DHT22;7592;51.088;13.732;2022-12-29T17:52:09;11.50;99.90
14993;DHT22;7592;51.088;13.732;2022-12-29T17:57:01;11.40;99.90
14993;DHT22;7592;51.088;13.732;2022-12-29T18:01:53;11.30;99.90
14993;DHT22;7592;51.088;13.732;2022-12-29T18:06:48;11.40;99.90
14993;DHT22;7592;51.088;13.732;2022-12-29T18:11:43;11.40;99.90
14993;DHT22;7592;51.088;13.732;2022-12-29T18:16:35;11.50;99.90
14993;DHT22;7592;51.088;13.732;2022-12-29T18:21:28;11.30;99.90
14993;DHT22;7592;51.088;13.732;2022-12-29T18:26:22;11.20;99.90
14993;DHT22;7592;51.088;13.732;2022-12-29T18:31:27;11.10;99.90
14993;DHT22;7592;51.088;13.732;2022-12-29T18:36:21;11.10;99.90
14993;DHT22;7592;51.088;13.732;2022-12-29T18:41:18;11.10;99.90
14993;DHT22;7592;51.088;13.732;2022-12-29T18:46:10;11.00;99.90
14993;DHT22;7592;51.088;13.732;2022-12-29T18:51:18;11.10;99.90
14993;DHT22;7592;51.088;13.732;2022-12-29T18:56:12;11.10;99.90
14993;DHT22;7592;51.088;13.732;2022-12-29T19:01:21;11.10;99.90
14993;DHT22;7592;51.088;13.732;2022-12-29T19:06:15;11.20;99.90
14993;DHT22;7592;51.088;13.732;2022-12-29T19:11:10;11.30;99.90
14993;DHT22;7592;51.088;13.732;2022-12-29T19:16:03;11.50;99.90
14993;DHT22;7592;51.088;13.732;2022-12-29T19:20:56;11.60;99.90
14993;DHT22;7592;51.088;13.732;2022-12-29T19:25:50;11.70;99.90
14993;DHT22;7592;51.088;13.732;2022-12-29T19:30:44;11.70;99.90
14993;DHT22;7592;51.088;13.732;2022-12-29T19:35:43;11.70;99.90
14993;DHT22;7592;51.088;13.732;2022-12-29T19:40:41;11.70;99.90
14993;DHT22;7592;51.088;13.732;2022-12-29T19:45:39;11.60;99.90
14993;DHT22;7592;51.088;13.732;2022-12-29T19:50:31;11.40;99.90
14993;DHT22;7592;51.088;13.732;2022-12-29T19:55:25;11.40;99.90
14993;DHT22;7592;51.088;13.732;2022-12-29T20:00:24;11.40;99.90
14993;DHT22;7592;51.088;13.732;2022-12-29T20:05:16;11.30;99.90
14993;DHT22;7592;51.088;13.732;2022-12-29T20:10:08;11.20;99.90
14993;DHT22;7592;51.088;13.732;2022-12-29T20:15:01;11.20;99.90
14993;DHT22;7592;51.088;13.732;2022-12-29T20:19:55;11.30;99.90
14993;DHT22;7592;51.088;13.732;2022-12-29T20:24:47;11.20;99.90
14993;DHT22;7592;51.088;13.732;2022-12-29T20:29:42;11.20;99.90
14993;DHT22;7592;51.088;13.732;2022-12-29T20:34:35;11.10;99.90
14993;DHT22;7592;51.088;13.732;2022-12-29T20:39:27;10.90;99.90
14993;DHT22;7592;51.088;13.732;2022-12-29T20:44:22;10.70;99.90
14993;DHT22;7592;51.088;13.732;2022-12-29T20:49:14;10.50;99.90
14993;DHT22;7592;51.088;13.732;2022-12-29T20:54:06;10.10;99.90
14993;DHT22;7592;51.088;13.732;2022-12-29T20:58:58;9.80;99.90
14993;DHT22;7592;51.088;13.732;2022-12-29T21:04:11;9.60;99.90
14993;DHT22;7592;51.088;13.732;2022-12-29T21:09:04;9.50;99.90
14993;DHT22;7592;51.088;13.732;2022-12-29T21:13:58;9.60;99.90
14993;DHT22;7592;51.088;13.732;2022-12-29T21:18:52;9.50;99.90
14993;DHT22;7592;51.088;13.732;2022-12-29T21:23:46;9.70;99.90
14993;DHT22;7592;51.088;13.732;2022-12-29T21:28:38;9.70;99.90
14993;DHT22;7592;51.088;13.732;2022-12-29T21:33:30;10.00;99.90
14993;DHT22;7592;51.088;13.732;2022-12-29T21:38:22;10.00;99.90
14993;DHT22;7592;51.088;13.732;2022-12-29T21:43:14;10.00;99.90
14993;DHT22;7592;51.088;13.732;2022-12-29T21:48:06;10.00;99.90
14993;DHT22;7592;51.088;13.732;2022-12-29T21:53:16;9.90;99.90
14993;DHT22;7592;51.088;13.732;2022-12-29T21:58:08;10.00;99.90
14993;DHT22;7592;51.088;13.732;2022-12-29T22:03:18;10.00;99.90
14993;DHT22;7592;51.088;13.732;2022-12-29T22:08:29;10.00;99.90
14993;DHT22;7592;51.088;13.732;2022-12-29T22:13:41;10.20;99.90
14993;DHT22;7592;51.088;13.732;2022-12-29T22:18:39;10.10;99.90
14993;DHT22;7592;51.088;13.732;2022-12-29T22:23:31;10.20;99.90
14993;DHT22;7592;51.088;13.732;2022-12-29T22:28:23;10.10;99.90
14993;DHT22;7592;51.088;13.732;2022-12-29T22:33:15;10.00;99.90
14993;DHT22;7592;51.088;13.732;2022-12-29T22:38:07;10.10;99.90
14993;DHT22;7592;51.088;13.732;2022-12-29T22:42:59;10.20;99.90
14993;DHT22;7592;51.088;13.732;2022-12-29T22:47:51;10.20;99.90
14993;DHT22;7592;51.088;13.732;2022-12-29T22:52:43;10.20;99.90
14993;DHT22;7592;51.088;13.732;2022-12-29T22:57:35;10.20;99.90
14993;DHT22;7592;51.088;13.732;2022-12-29T23:02:27;10.20;99.90
14993;DHT22;7592;51.088;13.732;2022-12-29T23:07:28;10.20;99.90
14993;DHT22;7592;51.088;13.732;2022-12-29T23:12:20;10.20;99.90
14993;DHT22;7592;51.088;13.732;2022-12-29T23:17:13;10.20;99.90
14993;DHT22;7592;51.088;13.732;2022-12-29T23:22:05;10.00;99.90
14993;DHT22;7592;51.088;13.732;2022-12-29T23:26:57;10.10;99.90
14993;DHT22;7592;51.088;13.732;2022-12-29T23:31:49;10.00;99.90
14993;DHT22;7592;51.088;13.732;2022-12-29T23:36:41;10.00;99.90
14993;DHT22;7592;51.088;13.732;2022-12-29T23:41:34;10.10;99.90
14993;DHT22;7592;51.088;13.732;2022-12-29T23:46:27;10.00;99.90
14993;DHT22;7592;51.088;13.732;2022-12-29T23:51:20;9.90;99.90
14993;DHT22;7592;51.088;13.732;2022-12-29T23:56:18;9.80;99.90
